createdAt,value
2019-03-16T00:00:54.358Z,98333.73
2019-03-16T00:07:02.537Z,98346.98
2019-03-16T00:13:15.956Z,98351.28
2019-03-16T00:19:26.072Z,98361.33
2019-03-16T00:25:34.714Z,98367.79
2019-03-16T00:31:42.757Z,98368.81
2019-03-16T00:37:54.205Z,98373.67
2019-03-16T00:43:58.178Z,98365.07
2019-03-16T00:50:04.431Z,98353.67
2019-03-16T00:56:09.060Z,98368.77
2019-03-16T01:02:26.649Z,98378.10
2019-03-16T01:08:25.057Z,98405.80
2019-03-16T01:14:34.614Z,98422.61
2019-03-16T01:20:46.174Z,98433.84
2019-03-16T01:26:52.078Z,98421.84
2019-03-16T01:33:00.269Z,98436.47
2019-03-16T01:39:26.027Z,98431.95
2019-03-16T01:45:34.970Z,98413.33
2019-03-16T01:51:47.023Z,98420.84
2019-03-16T01:57:58.428Z,98425.97
2019-03-16T02:10:27.812Z,98422.73
2019-03-16T02:16:37.288Z,98441.18
2019-03-16T02:22:49.938Z,98443.63
2019-03-16T02:29:02.743Z,98441.98
2019-03-16T02:35:11.710Z,98457.16
2019-03-16T02:41:20.664Z,98468.34
2019-03-16T02:47:45.045Z,98467.75
2019-03-16T02:53:55.189Z,98465.45
2019-03-16T03:00:06.262Z,98451.91
2019-03-16T03:06:24.659Z,98464.44
2019-03-16T03:12:39.232Z,98468.77
2019-03-16T03:18:52.458Z,98477.45
2019-03-16T03:24:57.269Z,98492.33
2019-03-16T03:31:12.129Z,98502.19
2019-03-16T03:37:20.942Z,98506.68
2019-03-16T03:43:25.150Z,98518.26
2019-03-16T03:49:32.662Z,98542.89
2019-03-16T03:55:39.755Z,98544.53
2019-03-16T04:01:44.542Z,98544.30
2019-03-16T04:07:49.357Z,98552.02
2019-03-16T04:13:54.148Z,98549.25
2019-03-16T04:20:03.334Z,98556.38
2019-03-16T04:26:14.276Z,98554.07
2019-03-16T04:32:28.537Z,98547.33
2019-03-16T04:38:29.858Z,98561.73
2019-03-16T04:44:34.504Z,98558.96
2019-03-16T04:50:39.270Z,98557.49
2019-03-16T04:56:46.958Z,98549.00
2019-03-16T05:03:00.540Z,98545.48
2019-03-16T05:09:12.040Z,98551.72
2019-03-16T05:15:34.886Z,98566.23
2019-03-16T05:21:40.679Z,98579.06
2019-03-16T05:27:48.990Z,98567.94
2019-03-16T05:34:01.875Z,98575.41
2019-03-16T05:40:16.300Z,98578.55
2019-03-16T05:46:32.238Z,98598.30
2019-03-16T05:52:43.309Z,98601.28
2019-03-16T05:59:13.916Z,98601.64
2019-03-16T06:05:24.585Z,98610.97
2019-03-16T06:11:41.150Z,98616.18
2019-03-16T06:17:46.580Z,98621.81
2019-03-16T06:23:52.734Z,98633.82
2019-03-16T06:29:59.694Z,98640.26
2019-03-16T06:36:05.760Z,98636.26
2019-03-16T06:42:10.583Z,98646.34
2019-03-16T06:48:18.176Z,98644.73
2019-03-16T06:54:23.162Z,98639.09
2019-03-16T07:00:29.688Z,98645.21
2019-03-16T07:06:36.203Z,98656.70
2019-03-16T07:12:48.525Z,98653.50
2019-03-16T07:18:59.025Z,98647.31
2019-03-16T07:25:07.771Z,98649.73
2019-03-16T07:31:14.018Z,98644.67
2019-03-16T07:37:24.676Z,98648.05
2019-03-16T07:43:29.376Z,98651.21
2019-03-16T07:49:38.799Z,98647.62
2019-03-16T07:55:44.077Z,98639.95
2019-03-16T08:01:48.843Z,98635.23
2019-03-16T08:07:54.719Z,98644.60
2019-03-16T08:14:03.208Z,98641.73
2019-03-16T08:20:09.440Z,98621.41
2019-03-16T08:26:14.179Z,98614.05
2019-03-16T08:32:20.633Z,98607.28
2019-03-16T08:38:25.649Z,98606.66
2019-03-16T08:44:31.940Z,98600.82
2019-03-16T08:50:46.219Z,98588.05
2019-03-16T08:56:55.727Z,98584.63
2019-03-16T09:03:03.607Z,98574.88
2019-03-16T09:09:10.011Z,98560.36
2019-03-16T09:15:18.452Z,98557.92
2019-03-16T09:21:29.325Z,98548.64
2019-03-16T09:27:32.323Z,98559.33
2019-03-16T09:33:41.253Z,98552.78
2019-03-16T09:39:47.114Z,98553.05
2019-03-16T09:45:53.286Z,98534.69
2019-03-16T09:51:58.172Z,98516.11
2019-03-16T09:58:03.044Z,98506.68
2019-03-16T10:04:10.969Z,98504.02
2019-03-16T10:10:18.207Z,98496.81
2019-03-16T10:16:22.775Z,98493.43
2019-03-16T10:22:29.341Z,98482.61
2019-03-16T10:28:43.193Z,98462.06
2019-03-16T10:35:05.618Z,98445.34
2019-03-16T10:41:09.141Z,98443.39
2019-03-16T10:47:23.207Z,98430.03
2019-03-16T10:53:35.652Z,98418.28
2019-03-16T11:00:08.325Z,98412.44
2019-03-16T11:06:01.374Z,98401.14
2019-03-16T11:12:09.534Z,98396.32
2019-03-16T11:18:19.049Z,98397.13
2019-03-16T11:25:40.985Z,98397.84
2019-03-16T11:37:20.289Z,98375.32
2019-03-16T11:43:24.846Z,98384.18
2019-03-16T11:49:29.401Z,98378.81
2019-03-16T11:55:33.965Z,98367.75
2019-03-16T12:01:38.508Z,98358.77
2019-03-16T12:07:43.066Z,98354.23
2019-03-16T12:13:47.598Z,98347.73
2019-03-16T12:19:52.185Z,98354.78
2019-03-16T12:25:56.747Z,98348.67
2019-03-16T12:32:01.323Z,98346.01
2019-03-16T12:38:06.102Z,98335.37
2019-03-16T12:44:10.664Z,98334.44
2019-03-16T12:50:15.627Z,98329.14
2019-03-16T12:56:20.257Z,98327.89
2019-03-16T13:02:24.809Z,98321.12
2019-03-16T13:08:29.386Z,98323.27
2019-03-16T13:14:33.950Z,98313.58
2019-03-16T13:20:38.521Z,98304.86
2019-03-16T13:26:43.094Z,98300.46
2019-03-16T13:32:47.800Z,98302.96
2019-03-16T13:38:52.366Z,98297.78
2019-03-16T13:44:56.912Z,98280.54
2019-03-16T13:51:01.491Z,98272.67
2019-03-16T13:57:06.238Z,98264.95
2019-03-16T14:03:10.808Z,98259.25
2019-03-16T14:09:15.398Z,98251.53
2019-03-16T14:15:19.946Z,98248.30
2019-03-16T14:21:24.518Z,98252.30
2019-03-16T14:27:29.074Z,98250.65
2019-03-16T14:33:33.721Z,98243.98
2019-03-16T14:39:38.655Z,98230.20
2019-03-16T14:45:43.559Z,98241.95
2019-03-16T14:51:48.113Z,98260.95
2019-03-16T14:57:52.769Z,98240.91
2019-03-16T15:03:57.399Z,98233.55
2019-03-16T15:10:06.926Z,98233.47
2019-03-16T15:16:11.560Z,98229.81
2019-03-16T15:22:16.121Z,98241.44
2019-03-16T15:28:20.689Z,98240.13
2019-03-16T15:34:25.429Z,98229.55
2019-03-16T15:40:29.989Z,98218.98
2019-03-16T15:46:34.633Z,98206.83
2019-03-16T15:52:39.274Z,98209.98
2019-03-16T15:58:43.855Z,98210.41
2019-03-16T16:04:48.433Z,98216.06
2019-03-16T16:11:00.944Z,98218.61
2019-03-16T16:16:59.296Z,98225.07
2019-03-16T16:23:03.933Z,98226.98
2019-03-16T16:29:08.490Z,98212.19
2019-03-16T16:35:17.083Z,98221.39
2019-03-16T16:41:21.706Z,98211.18
2019-03-16T16:47:26.274Z,98205.19
2019-03-16T16:53:30.813Z,98198.80
2019-03-16T16:59:35.370Z,98182.31
2019-03-16T17:05:43.135Z,98177.52
2019-03-16T17:11:46.208Z,98193.88
2019-03-16T17:17:50.757Z,98207.94
2019-03-16T17:23:55.346Z,98196.59
2019-03-16T17:29:59.952Z,98195.88
2019-03-16T17:36:04.679Z,98180.85
2019-03-16T17:42:09.259Z,98182.24
2019-03-16T17:48:13.807Z,98169.91
2019-03-16T17:54:18.385Z,98170.94
2019-03-16T18:00:22.954Z,98165.97
2019-03-16T18:06:27.609Z,98171.37
2019-03-16T18:12:32.236Z,98173.24
2019-03-16T18:18:36.816Z,98170.94
2019-03-16T18:24:41.455Z,98159.62
2019-03-16T18:30:46.016Z,98158.08
2019-03-16T18:36:50.668Z,98151.58
2019-03-16T18:42:55.347Z,98159.61
2019-03-16T18:49:00.006Z,98160.30
2019-03-16T18:55:06.912Z,98154.41
2019-03-16T19:01:11.479Z,98159.70
2019-03-16T19:07:16.122Z,98149.14
2019-03-16T19:13:20.838Z,98142.59
2019-03-16T19:19:25.555Z,98140.19
2019-03-16T19:25:30.125Z,98141.68
2019-03-16T19:31:34.700Z,98153.60
2019-03-16T19:37:39.257Z,98146.91
2019-03-16T19:43:43.857Z,98138.81
2019-03-16T19:49:48.407Z,98143.27
2019-03-16T19:55:52.971Z,98148.11
2019-03-16T20:01:57.521Z,98144.46
2019-03-16T20:08:02.159Z,98139.35
2019-03-16T20:14:06.794Z,98151.91
2019-03-16T20:20:14.532Z,98142.22
2019-03-16T20:26:19.101Z,98130.80
2019-03-16T20:32:23.666Z,98131.15
2019-03-16T20:38:28.283Z,98126.18
2019-03-16T20:44:32.919Z,98125.12
2019-03-16T20:50:37.477Z,98122.77
2019-03-16T20:56:42.137Z,98129.53
2019-03-16T21:02:47.152Z,98135.02
2019-03-16T21:09:02.529Z,98129.62
2019-03-16T21:14:58.161Z,98124.93
2019-03-16T21:21:02.767Z,98123.07
2019-03-16T21:27:07.339Z,98123.89
2019-03-16T21:33:11.970Z,98121.73
2019-03-16T21:39:17.096Z,98125.89
2019-03-16T21:45:21.956Z,98122.16
2019-03-16T21:51:26.552Z,98117.28
2019-03-16T21:57:31.331Z,98109.97
2019-03-16T22:03:41.921Z,98100.30
2019-03-16T22:09:42.288Z,98093.98
2019-03-16T22:15:46.838Z,98086.63
2019-03-16T22:21:51.470Z,98085.88
2019-03-16T22:27:56.028Z,98068.62
2019-03-16T22:34:00.948Z,98049.95
2019-03-16T22:40:11.966Z,98051.48
2019-03-16T22:46:16.623Z,98046.25
2019-03-16T22:52:21.240Z,98040.46
2019-03-16T22:58:25.902Z,98023.86
2019-03-16T23:04:30.615Z,98014.41
2019-03-16T23:10:35.304Z,98003.78
2019-03-16T23:16:39.901Z,98003.59
2019-03-16T23:22:44.581Z,97998.42
2019-03-16T23:28:49.128Z,97988.63
2019-03-16T23:34:53.772Z,97978.37
2019-03-16T23:40:58.408Z,97969.38
2019-03-16T23:47:03.119Z,97956.03
2019-03-16T23:53:07.750Z,97943.49
2019-03-16T23:59:12.303Z,97945.98
